Time;durP1;ratioP1;P1;durP2;ratioP2;P2;SDS_P1;SDS_P2;PMS_P1;PMS_P2;Temp;Humidity;BMP_temperature;BMP_pressure;BME280_temperature;BME280_humidity;BME280_pressure;Samples;Min_cycle;Max_cycle;Signal;HPM_P1;HPM_P2
2021/11/18 00:00:37;;;;;;;1.13;1.02;;;;;;;;;;5027676;28;20477;-50
2021/11/18 00:03:04;;;;;;;2.63;1.25;;;;;;;;;;5025592;28;20198;-50
2021/11/18 00:05:31;;;;;;;1.05;1.05;;;;;;;;;;5024048;28;20263;-50
2021/11/18 00:07:58;;;;;;;1.40;1.30;;;;;;;;;;5030959;28;20187;-49
2021/11/18 00:10:35;;;;;;;1.42;1.33;;;;;;;;;;5031485;28;20184;-48
2021/11/18 00:13:01;;;;;;;3.22;1.58;;;;;;;;;;5029399;28;20176;-50
2021/11/18 00:15:28;;;;;;;0.93;0.90;;;;;;;;;;5030172;28;20176;-49
2021/11/18 00:17:59;;;;;;;0.98;0.98;;;;;;;;;;5031519;28;20249;-50
2021/11/18 00:20:26;;;;;;;1.55;0.95;;;;;;;;;;5031652;28;20184;-49
2021/11/18 00:22:52;;;;;;;1.17;1.08;;;;;;;;;;5032041;28;20191;-50
2021/11/18 00:25:18;;;;;;;1.30;1.20;;;;;;;;;;5022852;28;20610;-49
2021/11/18 00:27:44;;;;;;;1.08;1.08;;;;;;;;;;5031387;28;20221;-50
2021/11/18 00:30:11;;;;;;;1.20;1.10;;;;;;;;;;5024061;28;20195;-47
2021/11/18 00:32:37;;;;;;;1.40;1.30;;;;;;;;;;5028643;28;20183;-49
2021/11/18 00:35:04;;;;;;;1.17;1.08;;;;;;;;;;5031289;28;20545;-50
2021/11/18 00:37:30;;;;;;;0.90;0.90;;;;;;;;;;5031058;28;20234;-50
2021/11/18 00:39:56;;;;;;;1.02;1.02;;;;;;;;;;5028120;28;20184;-49
2021/11/18 00:42:22;;;;;;;1.30;1.20;;;;;;;;;;5029250;28;20273;-50
2021/11/18 00:44:48;;;;;;;1.00;0.90;;;;;;;;;;5035877;28;20567;-48
2021/11/18 00:47:14;;;;;;;1.42;1.27;;;;;;;;;;5034655;28;20211;-49
2021/11/18 00:49:40;;;;;;;1.95;1.10;;;;;;;;;;5036979;28;20454;-49
2021/11/18 00:52:06;;;;;;;1.30;1.02;;;;;;;;;;5036667;28;20187;-49
2021/11/18 00:54:32;;;;;;;0.90;0.90;;;;;;;;;;5036695;28;20274;-48
2021/11/18 00:56:58;;;;;;;1.13;1.00;;;;;;;;;;5034178;28;20188;-49
2021/11/18 00:59:25;;;;;;;1.00;1.00;;;;;;;;;;5028343;28;20188;-50
2021/11/18 01:01:52;;;;;;;1.40;1.27;;;;;;;;;;5027895;28;20226;-49
2021/11/18 01:04:19;;;;;;;0.82;0.82;;;;;;;;;;5027240;28;20513;-49
2021/11/18 01:06:46;;;;;;;0.75;0.75;;;;;;;;;;5028856;28;20204;-50
2021/11/18 01:09:12;;;;;;;1.10;1.08;;;;;;;;;;5028262;28;20234;-50
2021/11/18 01:11:39;;;;;;;1.08;0.90;;;;;;;;;;5032195;28;20699;-49
2021/11/18 01:14:07;;;;;;;0.93;0.80;;;;;;;;;;5030808;28;20204;-49
2021/11/18 01:16:34;;;;;;;1.13;1.00;;;;;;;;;;5027912;28;20298;-49
2021/11/18 01:19:00;;;;;;;0.98;0.88;;;;;;;;;;5034012;28;20207;-50
2021/11/18 01:21:27;;;;;;;0.90;0.90;;;;;;;;;;5034193;28;20598;-49
2021/11/18 01:23:54;;;;;;;1.08;1.00;;;;;;;;;;5035427;28;20291;-50
2021/11/18 01:26:21;;;;;;;0.95;0.90;;;;;;;;;;5034941;28;20207;-48
2021/11/18 01:28:47;;;;;;;0.90;0.90;;;;;;;;;;5033299;28;20188;-47
2021/11/18 01:31:13;;;;;;;1.20;1.10;;;;;;;;;;5034806;28;20691;-48
2021/11/18 01:33:40;;;;;;;0.93;0.93;;;;;;;;;;5033080;28;20534;-50
2021/11/18 01:36:06;;;;;;;1.15;1.05;;;;;;;;;;5034257;28;20267;-50
2021/11/18 01:38:33;;;;;;;0.95;0.95;;;;;;;;;;5033968;28;20614;-49
2021/11/18 01:41:05;;;;;;;1.10;0.90;;;;;;;;;;5029688;28;20172;-48
2021/11/18 01:43:33;;;;;;;0.93;0.93;;;;;;;;;;5035522;28;20171;-49
2021/11/18 01:45:59;;;;;;;1.20;1.10;;;;;;;;;;5033824;28;20218;-50
2021/11/18 01:48:25;;;;;;;1.23;1.13;;;;;;;;;;5033443;28;20451;-49
2021/11/18 01:50:53;;;;;;;0.90;0.90;;;;;;;;;;5034350;28;20719;-49
2021/11/18 01:53:20;;;;;;;0.85;0.85;;;;;;;;;;5033309;28;20230;-49
2021/11/18 01:55:47;;;;;;;0.93;0.93;;;;;;;;;;5031933;28;20515;-49
2021/11/18 01:58:15;;;;;;;0.98;0.90;;;;;;;;;;5034582;28;20230;-49
2021/11/18 02:00:44;;;;;;;0.80;0.80;;;;;;;;;;5031962;28;20211;-50
2021/11/18 02:03:10;;;;;;;0.90;0.90;;;;;;;;;;5029644;28;20601;-48
2021/11/18 02:05:38;;;;;;;1.13;1.02;;;;;;;;;;5025271;28;20183;-50
2021/11/18 02:08:06;;;;;;;1.05;0.75;;;;;;;;;;5027501;28;20180;-50
2021/11/18 02:10:34;;;;;;;1.08;0.90;;;;;;;;;;5030510;28;20211;-50
2021/11/18 02:13:01;;;;;;;1.20;1.10;;;;;;;;;;5027640;28;20249;-49
2021/11/18 02:15:35;;;;;;;1.20;1.10;;;;;;;;;;5026157;28;20244;-49
2021/11/18 02:18:01;;;;;;;0.80;0.80;;;;;;;;;;5029635;28;20529;-49
2021/11/18 02:20:32;;;;;;;0.93;0.93;;;;;;;;;;5034548;28;20177;-49
2021/11/18 02:22:59;;;;;;;1.33;0.95;;;;;;;;;;5025758;28;20251;-49
2021/11/18 02:25:27;;;;;;;1.02;0.90;;;;;;;;;;5025917;28;20199;-50
2021/11/18 02:27:53;;;;;;;0.93;0.93;;;;;;;;;;5030314;28;20219;-50
2021/11/18 02:30:19;;;;;;;1.13;1.02;;;;;;;;;;5033350;28;20176;-49
2021/11/18 02:32:45;;;;;;;1.00;0.93;;;;;;;;;;5033355;28;20187;-50
2021/11/18 02:35:17;;;;;;;1.27;1.00;;;;;;;;;;5032781;28;20184;-49
2021/11/18 02:37:43;;;;;;;1.15;1.05;;;;;;;;;;5031382;28;20187;-50
2021/11/18 02:40:10;;;;;;;0.95;0.95;;;;;;;;;;5031888;28;20190;-48
2021/11/18 02:42:37;;;;;;;1.08;0.90;;;;;;;;;;5033875;28;20192;-49
2021/11/18 02:45:05;;;;;;;0.90;0.90;;;;;;;;;;5029635;28;20176;-49
2021/11/18 02:47:31;;;;;;;0.93;0.90;;;;;;;;;;5029480;28;20250;-50
2021/11/18 02:49:58;;;;;;;1.63;1.00;;;;;;;;;;5033407;28;20207;-49
2021/11/18 02:52:27;;;;;;;1.10;1.00;;;;;;;;;;5028552;28;20190;-49
2021/11/18 02:54:55;;;;;;;1.10;1.00;;;;;;;;;;5033607;28;20176;-49
2021/11/18 02:57:21;;;;;;;1.20;1.10;;;;;;;;;;5032537;28;20188;-48
2021/11/18 02:59:47;;;;;;;0.90;0.90;;;;;;;;;;5033515;28;20226;-49
2021/11/18 03:02:13;;;;;;;1.05;0.95;;;;;;;;;;5031175;28;20591;-48
2021/11/18 03:04:39;;;;;;;0.85;0.85;;;;;;;;;;5032463;28;20192;-49
2021/11/18 03:07:05;;;;;;;1.40;1.00;;;;;;;;;;5028052;28;20215;-49
2021/11/18 03:09:32;;;;;;;1.60;1.10;;;;;;;;;;5031740;28;20191;-49
2021/11/18 03:11:59;;;;;;;1.20;1.10;;;;;;;;;;5032777;28;20176;-49
2021/11/18 03:14:25;;;;;;;0.95;0.95;;;;;;;;;;5032566;28;20172;-49
2021/11/18 03:16:51;;;;;;;1.00;0.88;;;;;;;;;;5033284;28;20183;-48
2021/11/18 03:19:17;;;;;;;1.08;0.98;;;;;;;;;;5031792;28;20241;-50
2021/11/18 03:21:43;;;;;;;1.15;0.88;;;;;;;;;;5029560;28;20192;-49
2021/11/18 03:24:10;;;;;;;1.48;1.13;;;;;;;;;;5030659;28;20191;-49
2021/11/18 03:26:36;;;;;;;1.17;1.08;;;;;;;;;;5033315;28;20261;-50
2021/11/18 03:29:03;;;;;;;1.27;0.98;;;;;;;;;;5032027;28;20180;-48
2021/11/18 03:31:29;;;;;;;1.10;1.05;;;;;;;;;;5032418;28;20184;-49
2021/11/18 03:33:59;;;;;;;1.02;0.98;;;;;;;;;;5031337;28;20302;-49
2021/11/18 03:36:27;;;;;;;1.00;1.00;;;;;;;;;;5031751;28;20463;-49
2021/11/18 03:38:53;;;;;;;1.20;1.10;;;;;;;;;;5030484;28;20654;-49
2021/11/18 03:41:20;;;;;;;0.90;0.90;;;;;;;;;;5032988;28;20191;-49
2021/11/18 03:43:51;;;;;;;1.10;0.93;;;;;;;;;;5032101;28;20194;-50
2021/11/18 03:46:19;;;;;;;0.88;0.88;;;;;;;;;;5031111;28;20223;-50
2021/11/18 03:48:45;;;;;;;1.30;1.20;;;;;;;;;;5029061;28;20292;-49
2021/11/18 03:51:11;;;;;;;1.00;0.95;;;;;;;;;;5032561;28;20176;-48
2021/11/18 03:53:39;;;;;;;0.93;0.93;;;;;;;;;;5031501;28;20176;-48
2021/11/18 03:56:07;;;;;;;1.20;1.10;;;;;;;;;;5032420;28;20457;-49
2021/11/18 03:58:33;;;;;;;0.85;0.85;;;;;;;;;;5031199;28;20251;-49
2021/11/18 04:00:59;;;;;;;0.70;0.70;;;;;;;;;;5032192;28;20672;-48
2021/11/18 04:03:28;;;;;;;0.80;0.80;;;;;;;;;;5026412;28;20196;-49
2021/11/18 04:05:54;;;;;;;1.30;1.20;;;;;;;;;;5031580;28;20647;-49
2021/11/18 04:08:20;;;;;;;1.25;1.13;;;;;;;;;;5031767;28;20207;-49
2021/11/18 04:10:47;;;;;;;1.23;1.10;;;;;;;;;;5031704;28;20298;-50
2021/11/18 04:13:13;;;;;;;1.02;0.93;;;;;;;;;;5032290;28;20499;-49
2021/11/18 04:15:39;;;;;;;1.10;1.00;;;;;;;;;;5030633;28;20302;-49
2021/11/18 04:18:05;;;;;;;0.90;0.90;;;;;;;;;;5031776;28;20699;-49
2021/11/18 04:20:32;;;;;;;1.27;1.00;;;;;;;;;;5031234;28;20191;-49
2021/11/18 04:22:59;;;;;;;0.88;0.80;;;;;;;;;;5032930;28;20180;-50
2021/11/18 04:25:28;;;;;;;1.05;1.00;;;;;;;;;;5031064;28;20180;-50
2021/11/18 04:27:55;;;;;;;0.80;0.80;;;;;;;;;;5032478;28;20579;-48
2021/11/18 04:30:23;;;;;;;1.02;0.93;;;;;;;;;;5025461;28;20189;-49
2021/11/18 04:32:49;;;;;;;0.80;0.80;;;;;;;;;;5033435;28;20184;-49
2021/11/18 04:35:16;;;;;;;1.05;0.90;;;;;;;;;;5029681;28;20195;-49
2021/11/18 04:37:42;;;;;;;0.88;0.80;;;;;;;;;;5032558;28;20569;-47
2021/11/18 04:40:08;;;;;;;1.17;0.95;;;;;;;;;;5030778;28;20218;-50
2021/11/18 04:42:34;;;;;;;1.00;1.00;;;;;;;;;;5031834;28;20183;-48
2021/11/18 04:45:00;;;;;;;1.10;1.00;;;;;;;;;;5030925;28;20469;-49
2021/11/18 04:47:26;;;;;;;0.90;0.90;;;;;;;;;;5031591;28;20211;-49
2021/11/18 04:49:53;;;;;;;0.80;0.80;;;;;;;;;;5032057;28;20500;-49
2021/11/18 04:52:19;;;;;;;0.90;0.90;;;;;;;;;;5028825;28;20176;-49
2021/11/18 04:54:46;;;;;;;0.80;0.80;;;;;;;;;;5031982;28;20496;-49
2021/11/18 04:57:12;;;;;;;1.50;1.00;;;;;;;;;;5031361;28;20447;-49
2021/11/18 04:59:38;;;;;;;0.85;0.73;;;;;;;;;;5024072;28;20187;-50
2021/11/18 05:02:05;;;;;;;0.82;0.82;;;;;;;;;;5031086;28;20218;-49
2021/11/18 05:04:31;;;;;;;0.88;0.88;;;;;;;;;;5031953;28;20180;-49
2021/11/18 05:06:57;;;;;;;0.80;0.80;;;;;;;;;;5030494;28;20247;-50
2021/11/18 05:09:23;;;;;;;0.70;0.70;;;;;;;;;;5030333;28;20263;-50
2021/11/18 05:11:49;;;;;;;1.23;0.93;;;;;;;;;;5026070;28;20176;-49
2021/11/18 05:14:15;;;;;;;3.08;0.95;;;;;;;;;;5029837;28;20563;-50
2021/11/18 05:16:41;;;;;;;1.90;1.17;;;;;;;;;;5030041;28;20219;-49
2021/11/18 05:19:07;;;;;;;2.42;1.20;;;;;;;;;;5030834;28;20227;-49
2021/11/18 05:21:33;;;;;;;1.92;1.00;;;;;;;;;;5031272;28;20188;-50
2021/11/18 05:24:00;;;;;;;1.52;0.93;;;;;;;;;;5030627;28;20196;-49
2021/11/18 05:26:27;;;;;;;3.92;1.17;;;;;;;;;;5029699;28;20208;-50
2021/11/18 05:28:53;;;;;;;2.85;1.20;;;;;;;;;;5032603;28;20329;-48
2021/11/18 05:31:20;;;;;;;3.03;1.40;;;;;;;;;;5032904;28;20184;-50
2021/11/18 05:33:47;;;;;;;5.03;1.55;;;;;;;;;;5035022;28;20638;-49
2021/11/18 05:36:14;;;;;;;4.00;1.25;;;;;;;;;;5034784;28;20187;-49
2021/11/18 05:38:40;;;;;;;5.00;1.15;;;;;;;;;;5033099;28;20183;-47
2021/11/18 05:41:06;;;;;;;3.10;1.52;;;;;;;;;;5026257;28;20180;-48
2021/11/18 05:43:35;;;;;;;2.70;1.38;;;;;;;;;;5033975;28;20184;-49
2021/11/18 05:46:01;;;;;;;4.65;1.70;;;;;;;;;;5033371;28;20292;-50
2021/11/18 05:48:28;;;;;;;5.18;1.58;;;;;;;;;;5034386;28;20187;-50
2021/11/18 05:50:56;;;;;;;2.83;1.90;;;;;;;;;;5034758;28;20168;-50
2021/11/18 05:53:25;;;;;;;2.90;1.50;;;;;;;;;;5034730;28;20188;-48
2021/11/18 05:55:52;;;;;;;4.47;1.70;;;;;;;;;;5030603;28;20184;-49
2021/11/18 05:58:18;;;;;;;4.13;1.70;;;;;;;;;;5034830;28;20179;-49
2021/11/18 06:00:44;;;;;;;3.08;1.80;;;;;;;;;;5032514;28;20284;-48
2021/11/18 06:03:10;;;;;;;3.85;2.13;;;;;;;;;;5032431;28;20253;-49
2021/11/18 06:05:36;;;;;;;4.85;1.73;;;;;;;;;;5033265;28;20184;-48
2021/11/18 06:08:03;;;;;;;2.83;1.70;;;;;;;;;;5033284;28;20194;-49
2021/11/18 06:10:30;;;;;;;3.92;1.85;;;;;;;;;;5031612;28;20205;-49
2021/11/18 06:12:56;;;;;;;4.43;1.85;;;;;;;;;;5027856;28;20610;-48
2021/11/18 06:15:22;;;;;;;4.10;1.50;;;;;;;;;;5034069;28;20265;-49
2021/11/18 06:17:49;;;;;;;2.92;1.80;;;;;;;;;;5033331;28;20188;-49
2021/11/18 06:20:16;;;;;;;6.28;2.10;;;;;;;;;;5029362;28;20191;-49
2021/11/18 06:22:43;;;;;;;6.32;2.13;;;;;;;;;;5031781;28;20567;-49
2021/11/18 06:25:09;;;;;;;2.90;1.98;;;;;;;;;;5034305;28;20451;-49
2021/11/18 06:27:37;;;;;;;3.13;1.95;;;;;;;;;;5031144;28;20611;-49
2021/11/18 06:30:04;;;;;;;4.15;2.00;;;;;;;;;;5030892;28;20270;-50
2021/11/18 06:32:30;;;;;;;2.85;1.60;;;;;;;;;;5033691;28;20183;-50
2021/11/18 06:34:57;;;;;;;3.38;1.65;;;;;;;;;;5030385;28;20238;-49
2021/11/18 06:37:23;;;;;;;5.55;1.65;;;;;;;;;;5031733;28;20555;-49
2021/11/18 06:39:49;;;;;;;3.80;2.00;;;;;;;;;;5027488;28;20190;-49
2021/11/18 06:42:15;;;;;;;3.08;1.77;;;;;;;;;;5025003;28;20202;-49
2021/11/18 06:44:42;;;;;;;4.32;1.98;;;;;;;;;;5025560;28;20210;-48
2021/11/18 06:47:09;;;;;;;4.97;2.28;;;;;;;;;;5029731;28;20207;-50
2021/11/18 06:49:35;;;;;;;2.83;1.73;;;;;;;;;;5030602;28;20179;-50
2021/11/18 06:52:01;;;;;;;4.90;2.20;;;;;;;;;;5033619;28;20187;-49
2021/11/18 06:54:27;;;;;;;3.47;1.95;;;;;;;;;;5033784;28;20249;-48
2021/11/18 06:56:53;;;;;;;3.72;2.03;;;;;;;;;;5032636;28;20188;-49
2021/11/18 06:59:19;;;;;;;4.05;1.92;;;;;;;;;;5031432;28;20194;-50
2021/11/18 07:01:46;;;;;;;4.43;2.13;;;;;;;;;;5031312;28;20195;-48
2021/11/18 07:04:12;;;;;;;6.95;2.35;;;;;;;;;;5032469;28;20248;-48
2021/11/18 07:06:38;;;;;;;6.30;2.38;;;;;;;;;;5029152;28;20211;-48
2021/11/18 07:09:05;;;;;;;4.45;2.20;;;;;;;;;;5033627;28;20200;-49
2021/11/18 07:11:31;;;;;;;6.53;2.25;;;;;;;;;;5031473;28;20179;-50
2021/11/18 07:13:58;;;;;;;3.47;2.00;;;;;;;;;;5033939;28;20184;-50
2021/11/18 07:16:25;;;;;;;4.15;2.20;;;;;;;;;;5031650;28;20187;-48
2021/11/18 07:18:51;;;;;;;5.35;2.00;;;;;;;;;;5031734;28;20623;-48
2021/11/18 07:21:18;;;;;;;4.80;2.10;;;;;;;;;;5030581;28;20521;-49
2021/11/18 07:23:45;;;;;;;4.97;1.83;;;;;;;;;;5032715;28;20198;-49
2021/11/18 07:26:12;;;;;;;3.22;1.80;;;;;;;;;;5033363;28;20204;-49
2021/11/18 07:28:39;;;;;;;3.63;1.77;;;;;;;;;;5033026;28;20275;-48
2021/11/18 07:31:05;;;;;;;5.30;2.22;;;;;;;;;;5028910;28;20183;-50
2021/11/18 07:33:32;;;;;;;3.72;1.90;;;;;;;;;;5032725;28;20873;-49
2021/11/18 07:35:58;;;;;;;3.75;1.95;;;;;;;;;;5032638;28;20226;-48
2021/11/18 07:38:26;;;;;;;3.50;1.92;;;;;;;;;;5030488;28;20215;-48
2021/11/18 07:40:52;;;;;;;3.40;1.98;;;;;;;;;;5031534;28;20212;-49
2021/11/18 07:43:22;;;;;;;4.78;1.98;;;;;;;;;;5030686;28;20571;-49
2021/11/18 07:45:49;;;;;;;3.45;1.80;;;;;;;;;;5030092;28;20195;-48
2021/11/18 07:48:15;;;;;;;2.63;1.80;;;;;;;;;;5032416;28;20184;-49
2021/11/18 07:50:41;;;;;;;4.88;2.30;;;;;;;;;;5030247;28;20211;-50
2021/11/18 07:53:07;;;;;;;4.05;2.00;;;;;;;;;;5031308;28;20237;-48
2021/11/18 07:55:33;;;;;;;4.32;2.15;;;;;;;;;;5025902;28;20529;-49
2021/11/18 07:58:00;;;;;;;5.68;1.83;;;;;;;;;;5031977;28;20208;-48
2021/11/18 08:00:26;;;;;;;4.50;1.88;;;;;;;;;;5030481;28;20202;-50
2021/11/18 08:02:52;;;;;;;3.92;2.10;;;;;;;;;;5031270;28;20291;-48
2021/11/18 08:05:19;;;;;;;3.35;2.03;;;;;;;;;;5029515;28;20194;-49
2021/11/18 08:07:45;;;;;;;3.63;2.30;;;;;;;;;;5025386;28;20214;-50
2021/11/18 08:10:11;;;;;;;3.08;1.77;;;;;;;;;;5031413;28;20431;-49
2021/11/18 08:12:38;;;;;;;3.90;2.00;;;;;;;;;;5029943;28;20188;-49
2021/11/18 08:15:04;;;;;;;3.65;2.15;;;;;;;;;;5028216;28;20168;-50
2021/11/18 08:17:30;;;;;;;2.85;1.90;;;;;;;;;;5031569;28;20187;-49
2021/11/18 08:19:56;;;;;;;5.15;2.08;;;;;;;;;;5029466;28;20192;-48
2021/11/18 08:22:27;;;;;;;4.57;2.05;;;;;;;;;;5032270;28;20179;-48
2021/11/18 08:24:53;;;;;;;3.30;1.98;;;;;;;;;;5031823;28;20186;-49
2021/11/18 08:27:19;;;;;;;3.15;1.98;;;;;;;;;;5032633;28;20226;-48
2021/11/18 08:29:47;;;;;;;2.50;1.80;;;;;;;;;;5029908;28;20491;-48
2021/11/18 08:32:13;;;;;;;2.80;1.50;;;;;;;;;;5030557;28;20182;-49
2021/11/18 08:34:39;;;;;;;3.58;1.75;;;;;;;;;;5044897;28;20266;-49
2021/11/18 08:37:06;;;;;;;4.25;2.00;;;;;;;;;;5032748;28;20294;-48
2021/11/18 08:39:32;;;;;;;3.35;1.83;;;;;;;;;;5032561;28;20958;-49
2021/11/18 08:41:59;;;;;;;1.70;1.60;;;;;;;;;;5031051;28;20282;-49
2021/11/18 08:44:27;;;;;;;3.50;1.80;;;;;;;;;;5032382;28;20188;-50
2021/11/18 08:46:54;;;;;;;2.80;1.80;;;;;;;;;;5030220;28;20472;-49
2021/11/18 08:49:21;;;;;;;2.72;1.65;;;;;;;;;;5032130;28;20180;-49
2021/11/18 08:51:47;;;;;;;3.28;2.10;;;;;;;;;;5031051;28;20187;-50
2021/11/18 08:54:16;;;;;;;3.40;2.08;;;;;;;;;;5032414;28;20184;-48
2021/11/18 08:56:43;;;;;;;2.95;1.90;;;;;;;;;;5032300;28;20220;-49
2021/11/18 08:59:09;;;;;;;4.15;2.03;;;;;;;;;;5032992;28;20176;-49
2021/11/18 09:01:40;;;;;;;2.70;1.80;;;;;;;;;;5032454;28;20500;-48
2021/11/18 09:04:08;;;;;;;2.35;1.50;;;;;;;;;;5024580;28;20200;-49
2021/11/18 09:06:35;;;;;;;2.97;1.88;;;;;;;;;;5028265;28;20207;-48
2021/11/18 09:09:01;;;;;;;3.95;1.67;;;;;;;;;;5035207;28;20591;-48
2021/11/18 09:11:29;;;;;;;2.08;1.77;;;;;;;;;;5033994;28;20615;-48
2021/11/18 09:13:55;;;;;;;2.50;1.67;;;;;;;;;;5033620;28;20183;-49
2021/11/18 09:16:22;;;;;;;3.00;1.50;;;;;;;;;;5033938;28;20184;-50
2021/11/18 09:18:48;;;;;;;2.40;1.70;;;;;;;;;;5033579;28;20803;-50
2021/11/18 09:21:16;;;;;;;1.77;1.60;;;;;;;;;;5027460;28;20223;-49
2021/11/18 09:23:45;;;;;;;2.53;1.80;;;;;;;;;;5034345;28;20192;-49
2021/11/18 09:26:11;;;;;;;2.92;1.80;;;;;;;;;;5034855;28;20212;-50
2021/11/18 09:28:38;;;;;;;1.98;1.63;;;;;;;;;;5036541;28;20190;-49
2021/11/18 09:31:05;;;;;;;3.17;1.65;;;;;;;;;;5033590;28;20183;-49
2021/11/18 09:33:31;;;;;;;2.17;1.63;;;;;;;;;;5032777;28;20253;-49
2021/11/18 09:35:59;;;;;;;3.33;1.92;;;;;;;;;;5032705;28;20791;-50
2021/11/18 09:38:26;;;;;;;3.15;1.85;;;;;;;;;;5032776;28;20271;-50
2021/11/18 09:41:11;;;;;;;1.98;1.50;;;;;;;;;;5032130;28;20218;-50
2021/11/18 09:43:55;;;;;;;3.35;1.70;;;;;;;;;;5029057;28;20246;-49
2021/11/18 09:46:24;;;;;;;2.90;1.70;;;;;;;;;;5031572;28;20208;-49
2021/11/18 09:48:50;;;;;;;2.60;1.70;;;;;;;;;;5034826;28;20289;-50
2021/11/18 09:51:39;;;;;;;2.55;1.67;;;;;;;;;;5032760;28;20180;-49
2021/11/18 09:54:15;;;;;;;2.47;1.80;;;;;;;;;;5030235;28;20188;-50
2021/11/18 09:56:55;;;;;;;2.53;1.80;;;;;;;;;;5034884;28;20994;-50
2021/11/18 09:59:50;;;;;;;2.40;1.70;;;;;;;;;;5034555;28;20274;-49
2021/11/18 10:02:37;;;;;;;2.28;1.75;;;;;;;;;;5046525;28;20507;-49
2021/11/18 10:05:08;;;;;;;1.83;1.60;;;;;;;;;;5030927;28;20559;-48
2021/11/18 10:07:34;;;;;;;2.25;1.70;;;;;;;;;;5033499;28;20219;-48
2021/11/18 10:10:03;;;;;;;2.58;1.80;;;;;;;;;;5031355;28;20219;-49
2021/11/18 10:12:38;;;;;;;2.58;1.67;;;;;;;;;;5031127;28;20198;-49
2021/11/18 10:15:12;;;;;;;2.33;1.70;;;;;;;;;;5032516;28;20444;-49
2021/11/18 10:17:40;;;;;;;2.65;1.65;;;;;;;;;;5032691;28;20191;-48
2021/11/18 10:20:11;;;;;;;2.08;1.52;;;;;;;;;;5033966;28;20218;-49
2021/11/18 10:22:42;;;;;;;2.03;1.58;;;;;;;;;;5032780;28;20551;-49
2021/11/18 10:25:10;;;;;;;2.17;1.70;;;;;;;;;;5033170;28;20183;-49
2021/11/18 10:27:56;;;;;;;1.92;1.50;;;;;;;;;;5033874;28;20215;-49
2021/11/18 10:30:34;;;;;;;2.72;1.60;;;;;;;;;;5032251;28;20184;-50
2021/11/18 10:33:04;;;;;;;3.38;1.60;;;;;;;;;;5030975;28;20468;-49
2021/11/18 10:35:35;;;;;;;1.77;1.52;;;;;;;;;;5033412;28;20190;-49
2021/11/18 10:38:14;;;;;;;2.17;1.73;;;;;;;;;;5034441;28;20191;-47
2021/11/18 10:40:50;;;;;;;2.17;1.85;;;;;;;;;;5020949;28;20176;-49
2021/11/18 10:43:17;;;;;;;2.38;1.55;;;;;;;;;;5029549;28;20470;-49
2021/11/18 10:45:45;;;;;;;2.72;1.80;;;;;;;;;;5030140;28;20290;-50
2021/11/18 10:48:19;;;;;;;1.80;1.70;;;;;;;;;;5031745;28;20208;-50
2021/11/18 10:50:54;;;;;;;1.75;1.60;;;;;;;;;;5032538;28;20180;-49
2021/11/18 10:53:27;;;;;;;1.92;1.70;;;;;;;;;;5033796;28;20189;-50
2021/11/18 10:55:56;;;;;;;2.20;1.48;;;;;;;;;;5033436;28;20616;-49
2021/11/18 10:58:25;;;;;;;2.33;1.85;;;;;;;;;;5029087;28;20187;-50
2021/11/18 11:01:01;;;;;;;2.47;1.70;;;;;;;;;;5032192;28;20473;-49
2021/11/18 11:03:38;;;;;;;2.10;1.70;;;;;;;;;;5031568;28;20195;-49
2021/11/18 11:06:21;;;;;;;1.95;1.50;;;;;;;;;;5032162;28;20175;-50
2021/11/18 11:08:49;;;;;;;1.70;1.40;;;;;;;;;;5030264;28;20208;-50
2021/11/18 11:11:17;;;;;;;1.50;1.38;;;;;;;;;;5033197;28;20188;-50
2021/11/18 11:13:50;;;;;;;1.90;1.50;;;;;;;;;;5032115;28;20271;-49
2021/11/18 11:16:28;;;;;;;1.80;1.42;;;;;;;;;;5031357;28;20636;-48
2021/11/18 11:19:07;;;;;;;2.10;1.45;;;;;;;;;;5032950;28;20207;-48
2021/11/18 11:21:36;;;;;;;1.70;1.48;;;;;;;;;;5032099;28;20460;-48
2021/11/18 11:24:02;;;;;;;3.42;1.50;;;;;;;;;;5033681;28;20551;-49
2021/11/18 11:26:47;;;;;;;2.22;1.50;;;;;;;;;;5033160;28;20219;-49
2021/11/18 11:29:13;;;;;;;2.30;1.30;;;;;;;;;;5032637;28;20180;-49
2021/11/18 11:31:42;;;;;;;1.58;1.48;;;;;;;;;;5030843;28;20180;-50
2021/11/18 11:34:14;;;;;;;1.95;1.33;;;;;;;;;;5032745;28;20200;-50
2021/11/18 11:36:44;;;;;;;1.45;1.35;;;;;;;;;;5028934;28;20184;-50
2021/11/18 11:39:31;;;;;;;1.50;1.40;;;;;;;;;;5027937;28;20687;-49
2021/11/18 11:42:07;;;;;;;1.33;1.23;;;;;;;;;;5032097;28;20188;-48
2021/11/18 11:44:48;;;;;;;4.50;1.60;;;;;;;;;;5024540;28;20203;-49
2021/11/18 11:47:21;;;;;;;1.75;1.38;;;;;;;;;;5027401;28;20223;-49
2021/11/18 11:49:55;;;;;;;1.27;1.17;;;;;;;;;;5030674;28;20184;-50
2021/11/18 11:52:37;;;;;;;2.10;1.20;;;;;;;;;;5032140;28;20187;-50
2021/11/18 11:55:22;;;;;;;1.40;1.30;;;;;;;;;;5033149;28;20172;-49
2021/11/18 11:57:51;;;;;;;2.15;1.35;;;;;;;;;;5024618;28;20176;-50
2021/11/18 12:00:23;;;;;;;2.92;1.73;;;;;;;;;;5032617;28;20179;-50
2021/11/18 12:02:58;;;;;;;1.60;1.50;;;;;;;;;;5031362;28;20188;-49
2021/11/18 12:05:34;;;;;;;1.45;1.35;;;;;;;;;;5030889;28;20183;-48
2021/11/18 12:08:07;;;;;;;1.83;1.45;;;;;;;;;;5027156;28;20875;-50
2021/11/18 12:10:58;;;;;;;1.42;1.33;;;;;;;;;;5031912;28;20179;-50
2021/11/18 12:13:43;;;;;;;2.05;1.50;;;;;;;;;;5032447;28;20266;-50
2021/11/18 12:16:14;;;;;;;2.60;1.40;;;;;;;;;;5029869;28;20203;-48
2021/11/18 12:18:48;;;;;;;1.77;1.58;;;;;;;;;;5024220;28;20180;-48
2021/11/18 12:21:17;;;;;;;1.25;1.10;;;;;;;;;;5028138;28;20184;-49
2021/11/18 12:23:58;;;;;;;1.55;1.45;;;;;;;;;;5031140;28;20190;-48
2021/11/18 12:26:24;;;;;;;1.83;1.15;;;;;;;;;;5030434;28;20204;-49
2021/11/18 12:29:03;;;;;;;1.65;1.55;;;;;;;;;;5031617;28;20194;-49
2021/11/18 12:31:30;;;;;;;1.48;1.27;;;;;;;;;;5030709;28;20207;-50
2021/11/18 12:34:14;;;;;;;1.45;1.30;;;;;;;;;;5030722;28;20574;-48
2021/11/18 12:36:59;;;;;;;1.95;1.60;;;;;;;;;;5025141;28;20230;-48
2021/11/18 12:39:34;;;;;;;1.50;1.25;;;;;;;;;;5032099;28;20499;-48
2021/11/18 12:42:17;;;;;;;2.60;1.30;;;;;;;;;;5035750;28;20201;-48
2021/11/18 12:44:50;;;;;;;1.63;1.40;;;;;;;;;;5033735;28;20608;-50
2021/11/18 12:47:21;;;;;;;1.40;1.30;;;;;;;;;;5034172;28;20231;-49
2021/11/18 12:49:51;;;;;;;1.60;1.48;;;;;;;;;;5037334;28;20550;-48
2021/11/18 12:52:17;;;;;;;1.85;1.60;;;;;;;;;;5033505;28;20250;-49
2021/11/18 12:55:03;;;;;;;1.85;1.25;;;;;;;;;;5034929;28;20207;-48
2021/11/18 12:57:40;;;;;;;1.63;1.52;;;;;;;;;;5033680;28;20447;-49
2021/11/18 13:00:19;;;;;;;2.50;1.50;;;;;;;;;;5035847;28;20187;-48
2021/11/18 13:03:05;;;;;;;1.63;1.42;;;;;;;;;;5029759;28;20188;-49
2021/11/18 13:05:31;;;;;;;1.58;1.48;;;;;;;;;;5036271;28;20199;-49
2021/11/18 13:08:06;;;;;;;1.42;1.33;;;;;;;;;;5032097;28;20452;-48
2021/11/18 13:10:38;;;;;;;1.70;1.60;;;;;;;;;;5035501;28;20175;-48
2021/11/18 13:13:04;;;;;;;2.22;1.48;;;;;;;;;;5035914;28;20176;-48
2021/11/18 13:15:35;;;;;;;2.25;1.45;;;;;;;;;;5036596;28;20472;-48
2021/11/18 13:18:04;;;;;;;1.85;1.40;;;;;;;;;;5035280;28;20274;-49
2021/11/18 13:20:49;;;;;;;1.98;1.70;;;;;;;;;;5036615;28;20188;-48
2021/11/18 13:23:27;;;;;;;2.30;1.30;;;;;;;;;;5035777;28;20214;-49
2021/11/18 13:25:54;;;;;;;2.30;1.63;;;;;;;;;;5033382;28;20199;-48
2021/11/18 13:28:43;;;;;;;2.00;1.45;;;;;;;;;;5033831;28;20215;-49
2021/11/18 13:31:09;;;;;;;2.40;1.80;;;;;;;;;;5025751;28;20206;-48
2021/11/18 13:33:37;;;;;;;1.95;1.60;;;;;;;;;;5035325;28;20750;-48
2021/11/18 13:36:03;;;;;;;1.70;1.60;;;;;;;;;;5035794;28;20245;-49
2021/11/18 13:38:31;;;;;;;1.50;1.40;;;;;;;;;;5035492;28;20180;-50
2021/11/18 13:40:59;;;;;;;2.13;1.48;;;;;;;;;;5036580;28;20176;-49
2021/11/18 13:43:28;;;;;;;1.70;1.40;;;;;;;;;;5034177;28;20187;-48
2021/11/18 13:46:02;;;;;;;1.50;1.30;;;;;;;;;;5035747;28;20186;-49
2021/11/18 13:48:48;;;;;;;1.98;1.50;;;;;;;;;;5033984;28;20190;-48
2021/11/18 13:51:16;;;;;;;1.58;1.35;;;;;;;;;;5033454;28;20249;-50
2021/11/18 13:53:49;;;;;;;1.67;1.58;;;;;;;;;;5035971;28;20190;-49
2021/11/18 13:56:33;;;;;;;1.90;1.67;;;;;;;;;;5035008;28;20191;-48
2021/11/18 13:58:59;;;;;;;1.50;1.40;;;;;;;;;;5032758;28;20172;-48
2021/11/18 14:01:29;;;;;;;1.52;1.30;;;;;;;;;;5034276;28;20570;-48
2021/11/18 14:03:56;;;;;;;1.65;1.50;;;;;;;;;;5031198;28;20191;-49
2021/11/18 14:06:24;;;;;;;2.53;1.52;;;;;;;;;;5033068;28;20207;-50
2021/11/18 14:08:53;;;;;;;2.17;1.70;;;;;;;;;;5033393;28;20286;-50
2021/11/18 14:11:23;;;;;;;2.88;1.45;;;;;;;;;;5034956;28;20210;-49
2021/11/18 14:14:00;;;;;;;1.77;1.30;;;;;;;;;;5034798;28;20192;-49
2021/11/18 14:16:30;;;;;;;2.70;1.70;;;;;;;;;;5033704;28;20176;-48
2021/11/18 14:18:58;;;;;;;1.95;1.63;;;;;;;;;;5034317;28;20425;-48
2021/11/18 14:21:31;;;;;;;1.63;1.40;;;;;;;;;;5034825;28;20552;-50
2021/11/18 14:23:58;;;;;;;2.10;1.48;;;;;;;;;;5034351;28;20180;-48
2021/11/18 14:26:32;;;;;;;1.80;1.50;;;;;;;;;;5031042;28;20204;-49
2021/11/18 14:29:20;;;;;;;1.80;1.50;;;;;;;;;;5033682;28;20183;-49
2021/11/18 14:31:53;;;;;;;2.33;1.63;;;;;;;;;;5031265;28;20180;-48
2021/11/18 14:34:25;;;;;;;9.30;1.63;;;;;;;;;;5031340;28;20179;-49
2021/11/18 14:36:54;;;;;;;6.40;1.48;;;;;;;;;;5030882;28;20330;-49
2021/11/18 14:39:20;;;;;;;3.05;1.42;;;;;;;;;;5032270;28;20180;-50
2021/11/18 14:41:54;;;;;;;3.90;1.60;;;;;;;;;;5033905;28;20187;-48
2021/11/18 14:44:32;;;;;;;3.33;1.30;;;;;;;;;;5033948;28;20182;-49
2021/11/18 14:47:00;;;;;;;5.68;1.58;;;;;;;;;;5032384;28;20768;-48
2021/11/18 14:49:35;;;;;;;4.05;1.40;;;;;;;;;;5032564;28;20200;-49
2021/11/18 14:52:15;;;;;;;2.10;1.33;;;;;;;;;;5033647;28;20459;-49
2021/11/18 14:54:41;;;;;;;2.97;1.35;;;;;;;;;;5031571;28;20175;-48